Time;durP1;ratioP1;P1;durP2;ratioP2;P2;SDS_P1;SDS_P2;PMS_P1;PMS_P2;Temp;Humidity;BMP_temperature;BMP_pressure;BME280_temperature;BME280_humidity;BME280_pressure;Samples;Min_cycle;Max_cycle;Signal;HPM_P1;HPM_P2
2022/06/25 00:01:57;;;;;;;12.40;6.27;;;16.00;99.90;;;;;;5073519;28;20178;-62
2022/06/25 00:07:07;;;;;;;16.93;6.67;;;15.80;99.90;;;;;;5093945;28;20192;-63
2022/06/25 00:09:33;;;;;;;22.50;6.53;;;15.70;99.90;;;;;;5093835;28;20204;-62
2022/06/25 00:14:43;;;;;;;18.67;9.87;;;15.50;99.90;;;;;;5094242;28;20195;-62
2022/06/25 00:17:09;;;;;;;13.57;7.80;;;15.40;99.90;;;;;;5086227;28;20180;-62
2022/06/25 00:19:35;;;;;;;20.33;9.00;;;15.40;99.90;;;;;;5073556;28;20644;-62
2022/06/25 00:22:01;;;;;;;20.43;7.93;;;15.30;99.90;;;;;;5073217;28;20182;-62
2022/06/25 00:24:26;;;;;;;18.20;7.37;;;15.30;99.90;;;;;;5073692;28;20184;-62
2022/06/25 00:26:52;;;;;;;20.37;7.17;;;15.20;99.90;;;;;;5091210;28;20202;-62
2022/06/25 00:29:18;;;;;;;20.13;8.43;;;15.20;99.90;;;;;;5093775;28;20209;-62
2022/06/25 00:31:44;;;;;;;17.17;7.57;;;15.20;99.90;;;;;;5093531;28;20237;-62
2022/06/25 00:34:10;;;;;;;13.43;7.63;;;15.20;99.90;;;;;;5093126;28;20243;-62
2022/06/25 00:36:35;;;;;;;20.70;7.70;;;15.30;99.90;;;;;;5093353;28;20177;-62
2022/06/25 00:39:02;;;;;;;12.67;7.23;;;15.40;99.90;;;;;;5093279;28;20180;-62
2022/06/25 00:41:28;;;;;;;13.50;7.00;;;15.40;99.90;;;;;;5093102;28;20546;-62
2022/06/25 00:43:54;;;;;;;10.93;6.80;;;15.30;99.90;;;;;;5093408;28;20322;-62
2022/06/25 00:46:20;;;;;;;10.37;6.77;;;15.30;99.90;;;;;;5093016;28;20192;-62
2022/06/25 00:48:45;;;;;;;10.63;6.97;;;15.20;99.90;;;;;;5093123;28;20191;-62
2022/06/25 00:51:14;;;;;;;15.43;7.73;;;15.10;99.90;;;;;;5092821;28;20188;-62
2022/06/25 00:53:42;;;;;;;13.00;7.77;;;15.00;99.90;;;;;;5093435;28;20526;-62
2022/06/25 00:56:09;;;;;;;18.77;8.30;;;15.00;99.90;;;;;;5080388;28;20186;-62
2022/06/25 00:58:39;;;;;;;17.83;8.00;;;15.00;99.90;;;;;;5072811;28;20208;-62
2022/06/25 01:01:08;;;;;;;15.80;8.10;;;14.90;99.90;;;;;;5072584;28;20259;-62
2022/06/25 01:03:35;;;;;;;20.70;8.40;;;14.80;99.90;;;;;;5079444;28;20328;-62
2022/06/25 01:06:01;;;;;;;17.53;8.07;;;14.60;99.90;;;;;;5092655;28;20177;-62
2022/06/25 01:08:28;;;;;;;26.07;8.00;;;14.50;99.90;;;;;;5092563;28;20269;-62
2022/06/25 01:10:53;;;;;;;17.20;8.03;;;14.40;99.90;;;;;;5092555;28;20797;-62
2022/06/25 01:13:24;;;;;;;15.80;7.90;;;14.30;99.90;;;;;;5092611;28;20269;-62
2022/06/25 01:15:50;;;;;;;19.17;7.30;;;14.30;99.90;;;;;;5092574;28;20184;-62
2022/06/25 01:18:16;;;;;;;16.03;8.20;;;14.20;99.90;;;;;;5076038;28;20183;-62
2022/06/25 01:20:45;;;;;;;13.60;7.53;;;14.10;99.90;;;;;;5072513;28;20177;-62
2022/06/25 01:23:12;;;;;;;16.47;7.80;;;14.00;99.90;;;;;;5072205;28;20641;-62
2022/06/25 01:25:39;;;;;;;12.57;8.40;;;13.90;99.90;;;;;;5072177;28;20188;-62
2022/06/25 01:28:06;;;;;;;17.93;9.00;;;13.80;99.90;;;;;;5071994;28;20532;-62
2022/06/25 01:30:32;;;;;;;21.37;8.90;;;13.80;99.90;;;;;;5072212;28;20207;-62
2022/06/25 01:32:58;;;;;;;14.60;7.93;;;13.80;99.90;;;;;;5071530;28;20272;-62
2022/06/25 01:35:24;;;;;;;17.57;8.90;;;13.80;99.90;;;;;;5072161;28;20588;-62
2022/06/25 01:37:50;;;;;;;21.60;8.73;;;13.80;99.90;;;;;;5071869;28;20258;-62
2022/06/25 01:40:16;;;;;;;18.90;8.17;;;13.80;99.90;;;;;;5072290;28;20268;-61
2022/06/25 01:43:00;;;;;;;13.00;8.27;;;13.80;99.90;;;;;;5071776;28;20177;-62
2022/06/25 01:45:32;;;;;;;15.03;8.20;;;13.80;99.90;;;;;;5072000;28;20185;-62
2022/06/25 01:47:59;;;;;;;16.03;8.00;;;13.80;99.90;;;;;;5071549;28;20201;-62
2022/06/25 01:50:26;;;;;;;16.50;7.73;;;13.90;99.90;;;;;;5072158;28;20745;-62
2022/06/25 01:52:52;;;;;;;14.83;8.23;;;13.80;99.90;;;;;;5071637;28;20192;-61
2022/06/25 01:55:19;;;;;;;17.23;8.00;;;13.80;99.90;;;;;;5076705;28;20236;-62
2022/06/25 01:57:45;;;;;;;12.97;7.23;;;13.80;99.90;;;;;;5091733;28;20238;-62
2022/06/25 02:00:15;;;;;;;20.30;8.23;;;13.80;99.90;;;;;;5091922;28;20188;-61
2022/06/25 02:02:41;;;;;;;16.67;7.43;;;13.80;99.90;;;;;;5091639;28;20675;-62
2022/06/25 02:05:08;;;;;;;15.47;7.77;;;13.90;99.90;;;;;;5071482;28;20208;-62
2022/06/25 02:07:34;;;;;;;15.23;7.67;;;14.00;99.90;;;;;;5071808;28;20212;-62
2022/06/25 02:10:00;;;;;;;11.70;6.87;;;14.10;99.90;;;;;;5071313;28;20244;-62
2022/06/25 02:12:26;;;;;;;10.57;7.40;;;14.10;99.90;;;;;;5071515;28;20205;-64
2022/06/25 02:14:52;;;;;;;15.97;7.37;;;14.10;99.90;;;;;;5071490;28;20667;-62
2022/06/25 02:17:18;;;;;;;15.97;7.50;;;14.20;99.90;;;;;;5079650;28;20581;-63
2022/06/25 02:19:43;;;;;;;15.20;7.90;;;14.20;99.90;;;;;;5091948;28;20705;-62
2022/06/25 02:22:14;;;;;;;18.70;7.37;;;14.20;99.90;;;;;;5095500;28;20181;-61
2022/06/25 02:24:41;;;;;;;10.57;6.87;;;14.20;99.90;;;;;;5096028;28;20187;-62
2022/06/25 02:27:07;;;;;;;11.17;6.83;;;14.30;99.90;;;;;;5075313;28;20177;-62
2022/06/25 02:29:33;;;;;;;11.60;6.57;;;14.20;99.90;;;;;;5075747;28;20239;-62
2022/06/25 02:31:59;;;;;;;27.03;8.30;;;14.20;99.90;;;;;;5075131;28;20189;-62
2022/06/25 02:34:24;;;;;;;24.70;7.60;;;14.20;99.90;;;;;;5075737;28;20185;-61
2022/06/25 02:36:50;;;;;;;14.70;7.23;;;14.20;99.90;;;;;;5075188;28;20370;-62
2022/06/25 02:39:17;;;;;;;14.00;6.50;;;14.20;99.90;;;;;;5057529;28;20192;-61
2022/06/25 02:41:43;;;;;;;18.53;7.40;;;14.10;99.90;;;;;;5075623;28;20274;-62
2022/06/25 02:44:09;;;;;;;14.47;6.87;;;14.10;99.90;;;;;;5075069;28;20243;-61
2022/06/25 02:46:35;;;;;;;16.27;7.03;;;14.10;99.90;;;;;;5075231;28;20180;-61
2022/06/25 02:49:01;;;;;;;12.07;6.70;;;14.20;99.90;;;;;;5074845;28;20211;-61
2022/06/25 02:51:27;;;;;;;16.20;7.03;;;14.20;99.90;;;;;;5075358;28;20221;-61
2022/06/25 02:53:55;;;;;;;13.70;6.80;;;14.40;99.90;;;;;;5074924;28;20355;-61
2022/06/25 02:59:06;;;;;;;14.67;8.47;;;14.50;99.90;;;;;;5079803;28;20239;-61
2022/06/25 03:01:32;;;;;;;12.07;7.00;;;14.60;99.90;;;;;;5095299;28;20571;-61
2022/06/25 03:03:58;;;;;;;12.33;7.20;;;14.70;99.90;;;;;;5083947;28;20237;-61
2022/06/25 03:06:24;;;;;;;12.27;6.97;;;14.80;99.90;;;;;;5074620;28;20236;-61
2022/06/25 03:08:50;;;;;;;14.03;6.47;;;14.80;99.90;;;;;;5074716;28;20182;-62
2022/06/25 03:11:17;;;;;;;9.90;6.60;;;14.90;99.90;;;;;;5074844;28;20188;-61
2022/06/25 03:13:42;;;;;;;14.27;7.00;;;15.00;99.90;;;;;;5074665;28;20522;-61
2022/06/25 03:16:08;;;;;;;20.00;7.03;;;15.10;99.90;;;;;;5074295;28;20249;-61
2022/06/25 03:18:35;;;;;;;14.13;6.93;;;15.10;99.90;;;;;;5074510;28;20181;-61
2022/06/25 03:21:01;;;;;;;14.00;6.63;;;15.20;99.90;;;;;;5074399;28;20192;-61
2022/06/25 03:23:27;;;;;;;11.73;5.80;;;15.20;99.90;;;;;;5074402;28;20178;-61
2022/06/25 03:25:53;;;;;;;16.80;5.17;;;15.30;99.90;;;;;;5065742;28;20188;-61
2022/06/25 03:28:19;;;;;;;9.27;5.37;;;15.40;99.90;;;;;;5095068;28;20212;-62
2022/06/25 03:30:45;;;;;;;8.00;4.97;;;15.50;99.90;;;;;;5094210;28;20664;-61
2022/06/25 03:33:12;;;;;;;7.63;4.93;;;15.60;99.90;;;;;;5094251;28;20628;-61
2022/06/25 03:35:38;;;;;;;5.13;4.23;;;15.80;99.90;;;;;;5094197;28;20174;-62
2022/06/25 03:38:04;;;;;;;8.43;4.97;;;15.90;99.90;;;;;;5094344;28;20191;-61
2022/06/25 03:40:30;;;;;;;10.10;5.17;;;15.90;99.90;;;;;;5094442;28;20184;-62
2022/06/25 03:42:55;;;;;;;10.27;5.40;;;16.00;99.90;;;;;;5075931;28;20184;-61
2022/06/25 03:45:22;;;;;;;10.57;5.23;;;16.10;99.90;;;;;;5094251;28;20189;-61
2022/06/25 03:47:50;;;;;;;8.70;5.17;;;16.10;99.90;;;;;;5093624;28;20184;-64
2022/06/25 03:50:17;;;;;;;6.70;4.87;;;16.20;99.90;;;;;;5094131;28;20391;-62
2022/06/25 03:52:44;;;;;;;10.70;5.57;;;16.20;99.90;;;;;;5094229;28;20177;-61
2022/06/25 03:55:09;;;;;;;9.47;4.67;;;16.30;99.90;;;;;;5093420;28;20281;-63
2022/06/25 03:57:36;;;;;;;8.27;4.90;;;16.40;99.90;;;;;;5058770;28;20287;-61
2022/06/25 04:00:04;;;;;;;12.77;5.53;;;16.50;99.90;;;;;;5093778;28;20601;-61
2022/06/25 04:02:29;;;;;;;11.90;6.40;;;16.60;99.90;;;;;;5093356;28;20181;-62
2022/06/25 04:04:55;;;;;;;16.27;6.90;;;16.60;99.90;;;;;;5074730;28;20276;-62
2022/06/25 04:07:21;;;;;;;13.13;7.30;;;16.70;99.90;;;;;;5074017;28;20633;-61
2022/06/25 04:09:46;;;;;;;11.90;7.23;;;16.70;99.90;;;;;;5073205;28;20217;-61
2022/06/25 04:12:12;;;;;;;17.20;6.43;;;16.70;99.90;;;;;;5073548;28;20185;-62
2022/06/25 04:14:38;;;;;;;11.20;6.20;;;16.80;99.90;;;;;;5073603;28;20173;-62
2022/06/25 04:17:06;;;;;;;11.30;4.93;;;16.90;99.90;;;;;;5044322;28;20208;-61
2022/06/25 04:19:39;;;;;;;9.03;5.37;;;17.00;99.90;;;;;;5093072;28;20536;-62
2022/06/25 04:22:07;;;;;;;15.43;5.67;;;17.10;99.90;;;;;;5093342;28;20629;-61
2022/06/25 04:24:34;;;;;;;9.97;5.37;;;17.10;99.90;;;;;;5093099;28;20173;-62
2022/06/25 04:26:59;;;;;;;17.53;7.90;;;17.10;99.90;;;;;;5092839;28;20181;-62
2022/06/25 04:29:25;;;;;;;18.10;8.70;;;17.20;99.90;;;;;;5092893;28;20240;-61
2022/06/25 04:31:51;;;;;;;20.03;10.77;;;17.30;99.90;;;;;;5092895;28;20188;-62
2022/06/25 04:34:16;;;;;;;21.10;9.77;;;17.30;99.90;;;;;;5093489;28;20200;-62
2022/06/25 04:36:42;;;;;;;18.50;7.40;;;17.40;99.90;;;;;;5093402;28;20181;-62
2022/06/25 04:39:08;;;;;;;22.27;9.50;;;17.40;99.90;;;;;;5092750;28;20185;-62
2022/06/25 04:41:33;;;;;;;18.33;7.87;;;17.40;99.90;;;;;;5093003;28;20231;-62
2022/06/25 04:44:01;;;;;;;12.87;6.73;;;17.50;99.90;;;;;;5092165;28;20264;-62
2022/06/25 04:46:29;;;;;;;14.63;7.53;;;17.60;99.90;;;;;;5092417;28;20184;-61
2022/06/25 04:48:56;;;;;;;19.23;7.20;;;17.70;99.90;;;;;;5092498;28;20196;-61
2022/06/25 04:51:21;;;;;;;21.53;7.50;;;17.80;99.90;;;;;;5093103;28;20202;-62
2022/06/25 04:53:56;;;;;;;15.67;7.70;;;17.80;99.90;;;;;;5092745;28;20537;-66
2022/06/25 04:56:27;;;;;;;14.50;8.00;;;17.90;99.90;;;;;;5078839;28;20177;-61
2022/06/25 04:58:54;;;;;;;16.97;9.13;;;18.00;99.90;;;;;;5071723;28;20250;-61
2022/06/25 05:01:20;;;;;;;17.93;8.27;;;18.20;99.90;;;;;;5071887;28;20182;-62
2022/06/25 05:03:46;;;;;;;23.50;8.27;;;18.30;99.90;;;;;;5080644;28;20304;-61
2022/06/25 05:06:12;;;;;;;18.63;7.73;;;18.30;99.90;;;;;;5092235;28;20260;-63
2022/06/25 05:08:38;;;;;;;12.53;6.87;;;18.40;99.90;;;;;;5092625;28;20177;-63
2022/06/25 05:11:04;;;;;;;14.93;5.60;;;18.60;99.90;;;;;;5092041;28;20221;-63
2022/06/25 05:13:30;;;;;;;14.70;5.30;;;18.70;99.90;;;;;;5092628;28;20177;-62
2022/06/25 05:15:56;;;;;;;9.88;4.97;;;18.80;99.90;;;;;;5091576;28;20200;-62
2022/06/25 05:18:22;;;;;;;9.20;5.32;;;18.80;99.90;;;;;;5075184;28;20274;-62
2022/06/25 05:20:48;;;;;;;10.07;4.95;;;18.90;99.90;;;;;;5071322;28;20181;-63
2022/06/25 05:23:14;;;;;;;15.02;5.38;;;19.00;99.90;;;;;;5071934;28;20192;-62
2022/06/25 05:25:41;;;;;;;18.05;5.10;;;19.10;99.90;;;;;;5079875;28;20181;-62
2022/06/25 05:28:07;;;;;;;7.60;4.68;;;19.20;99.90;;;;;;5091644;28;20661;-62
2022/06/25 05:30:33;;;;;;;13.15;4.55;;;19.20;99.90;;;;;;5091332;28;20576;-62
2022/06/25 05:33:00;;;;;;;14.73;4.43;;;19.30;99.90;;;;;;5073325;28;20522;-62
2022/06/25 05:35:26;;;;;;;5.93;4.13;;;19.40;99.90;;;;;;5091616;28;20184;-62
2022/06/25 05:37:52;;;;;;;7.05;4.03;;;19.50;99.90;;;;;;5091535;28;20203;-62
2022/06/25 05:40:18;;;;;;;5.57;3.95;;;19.60;99.90;;;;;;5091862;28;20185;-62
2022/06/25 05:42:44;;;;;;;4.60;3.55;;;19.80;99.90;;;;;;5091776;28;20181;-63
2022/06/25 05:45:10;;;;;;;11.18;3.72;;;19.80;99.90;;;;;;5091404;28;20188;-62
2022/06/25 05:47:37;;;;;;;9.73;3.75;;;20.00;99.90;;;;;;5091744;28;20591;-62
2022/06/25 05:50:03;;;;;;;7.00;3.75;;;20.10;99.90;;;;;;5091259;28;20216;-62
2022/06/25 05:52:29;;;;;;;6.38;3.63;;;20.20;99.90;;;;;;5091604;28;20260;-62
2022/06/25 05:54:54;;;;;;;11.18;4.50;;;20.30;99.90;;;;;;5090737;28;20721;-62
2022/06/25 05:57:20;;;;;;;10.10;4.45;;;20.40;99.90;;;;;;5091006;28;20181;-62
2022/06/25 05:59:46;;;;;;;11.10;4.15;;;20.50;99.90;;;;;;5090815;28;20189;-62
2022/06/25 06:02:12;;;;;;;8.45;4.40;;;20.60;99.90;;;;;;5092088;28;20252;-62
2022/06/25 06:04:38;;;;;;;11.73;3.97;;;20.70;99.90;;;;;;5074992;28;20230;-62
2022/06/25 06:07:05;;;;;;;13.57;4.60;;;20.70;99.90;;;;;;5071011;28;20196;-62
2022/06/25 06:09:33;;;;;;;9.18;3.75;;;20.80;99.90;;;;;;5053238;28;20202;-62
2022/06/25 06:11:59;;;;;;;11.15;4.28;;;20.90;99.90;;;;;;5070681;28;20181;-61
2022/06/25 06:14:26;;;;;;;15.05;4.07;;;21.00;99.90;;;;;;5071316;28;20182;-62
2022/06/25 06:16:51;;;;;;;7.60;3.67;;;21.00;99.90;;;;;;5074737;28;20196;-62
2022/06/25 06:19:17;;;;;;;8.52;3.85;;;21.10;99.60;;;;;;5091378;28;20185;-62
2022/06/25 06:21:44;;;;;;;7.13;3.80;;;21.00;99.50;;;;;;5092616;28;20560;-61
2022/06/25 06:24:10;;;;;;;11.48;4.43;;;21.10;99.80;;;;;;5090960;28;20173;-61
2022/06/25 06:26:37;;;;;;;11.63;4.20;;;21.30;99.80;;;;;;5072635;28;20666;-62
2022/06/25 06:29:03;;;;;;;7.35;4.25;;;21.30;99.30;;;;;;5090843;28;20189;-66
2022/06/25 06:31:29;;;;;;;10.48;4.68;;;21.40;99.40;;;;;;5082133;28;20188;-65
2022/06/25 06:33:54;;;;;;;13.38;4.78;;;21.50;99.30;;;;;;5049515;28;20188;-66
2022/06/25 06:36:20;;;;;;;11.07;4.75;;;21.60;99.40;;;;;;5072822;28;20184;-62
2022/06/25 06:38:46;;;;;;;10.10;4.65;;;21.70;99.10;;;;;;5091039;28;20188;-62
2022/06/25 06:41:14;;;;;;;14.05;5.28;;;21.70;98.90;;;;;;5073024;28;20181;-67
2022/06/25 06:43:40;;;;;;;17.67;5.93;;;21.80;99.20;;;;;;5085062;28;20660;-63
2022/06/25 06:46:06;;;;;;;10.65;4.97;;;21.90;99.00;;;;;;5070347;28;20182;-67
2022/06/25 06:48:32;;;;;;;12.75;5.95;;;22.00;98.30;;;;;;5071116;28;20553;-67
2022/06/25 06:50:58;;;;;;;15.65;5.45;;;22.10;98.30;;;;;;5070265;28;20210;-66
2022/06/25 06:53:24;;;;;;;16.30;6.07;;;22.20;98.10;;;;;;5070666;28;20177;-66
2022/06/25 06:55:50;;;;;;;8.90;5.05;;;22.30;98.20;;;;;;5079205;28;20525;-65
2022/06/25 06:58:16;;;;;;;14.25;5.30;;;22.30;97.50;;;;;;5072922;28;20592;-63
2022/06/25 07:00:42;;;;;;;13.50;4.80;;;22.40;97.30;;;;;;5090577;28;20208;-65
2022/06/25 07:03:08;;;;;;;10.43;5.07;;;22.50;96.30;;;;;;5086530;28;20587;-63
2022/06/25 07:05:34;;;;;;;10.00;3.88;;;22.50;95.40;;;;;;5070408;28;20239;-64
2022/06/25 07:07:59;;;;;;;15.27;5.00;;;22.60;94.40;;;;;;5073323;28;20535;-63
2022/06/25 07:10:25;;;;;;;10.68;4.00;;;22.70;95.10;;;;;;5074142;28;20205;-60
2022/06/25 07:12:51;;;;;;;11.57;4.90;;;22.60;94.70;;;;;;5063799;28;20279;-64
2022/06/25 07:15:16;;;;;;;9.32;4.88;;;22.70;94.70;;;;;;5089530;28;20548;-66
2022/06/25 07:17:42;;;;;;;12.90;4.40;;;22.80;94.00;;;;;;5089367;28;20752;-63
2022/06/25 07:20:09;;;;;;;8.95;4.88;;;23.00;92.90;;;;;;5089989;28;20200;-64
2022/06/25 07:22:34;;;;;;;10.43;4.53;;;23.10;92.00;;;;;;5091645;28;20231;-63
2022/06/25 07:25:00;;;;;;;12.38;4.88;;;23.20;92.10;;;;;;5092418;28;20189;-65
2022/06/25 07:27:26;;;;;;;15.60;5.00;;;23.30;92.50;;;;;;5093041;28;20275;-65
2022/06/25 07:29:52;;;;;;;11.27;4.28;;;23.40;92.40;;;;;;5093291;28;20213;-69
2022/06/25 07:32:17;;;;;;;12.82;5.18;;;23.40;92.40;;;;;;5085536;28;20220;-64
2022/06/25 07:34:43;;;;;;;14.30;5.03;;;23.50;92.90;;;;;;5064432;28;20243;-68
2022/06/25 07:37:09;;;;;;;8.57;5.25;;;23.50;92.40;;;;;;5048090;28;20280;-63
2022/06/25 07:39:35;;;;;;;13.35;4.90;;;23.60;92.20;;;;;;5082509;28;20196;-63
2022/06/25 07:42:00;;;;;;;11.70;4.82;;;23.70;92.20;;;;;;5083674;28;20174;-64
2022/06/25 07:44:26;;;;;;;13.43;4.55;;;23.70;91.50;;;;;;5082945;28;20254;-63
2022/06/25 07:46:52;;;;;;;9.40;4.82;;;23.80;91.40;;;;;;5083118;28;20641;-64
2022/06/25 07:49:18;;;;;;;13.25;5.57;;;23.80;91.40;;;;;;5081970;28;20209;-63
2022/06/25 07:52:01;;;;;;;13.52;5.75;;;23.80;91.20;;;;;;5086177;28;20626;-62
2022/06/25 07:54:30;;;;;;;7.95;3.58;;;24.10;90.70;;;;;;5082130;28;20235;-63
2022/06/25 07:56:57;;;;;;;8.30;4.72;;;24.50;88.30;;;;;;5081478;28;20193;-64
2022/06/25 07:59:23;;;;;;;6.88;4.50;;;24.90;86.70;;;;;;5068731;28;20188;-64
2022/06/25 08:01:50;;;;;;;6.05;3.50;;;25.50;85.80;;;;;;5091892;28;20474;-64
2022/06/25 08:04:16;;;;;;;8.77;4.78;;;25.80;80.40;;;;;;5091928;28;20237;-64
2022/06/25 08:06:43;;;;;;;8.35;4.15;;;25.80;79.90;;;;;;5091732;28;20196;-67
2022/06/25 08:09:09;;;;;;;10.65;3.67;;;26.10;76.60;;;;;;5092667;28;20302;-67
2022/06/25 08:11:35;;;;;;;11.00;3.85;;;26.30;75.80;;;;;;5092947;28;20655;-66
2022/06/25 08:14:01;;;;;;;14.52;3.67;;;26.50;75.50;;;;;;5092552;28;20199;-67
2022/06/25 08:16:27;;;;;;;11.05;3.45;;;26.80;75.00;;;;;;5090560;28;20273;-67
2022/06/25 08:18:53;;;;;;;10.85;4.20;;;26.80;74.30;;;;;;5081933;28;20264;-63
2022/06/25 08:21:19;;;;;;;12.00;4.35;;;26.80;72.50;;;;;;5092453;28;20189;-65
2022/06/25 08:23:46;;;;;;;11.65;4.80;;;27.00;71.70;;;;;;5074577;28;20644;-64
2022/06/25 08:26:11;;;;;;;11.60;6.07;;;27.20;72.00;;;;;;5085162;28;20663;-63
2022/06/25 08:28:37;;;;;;;8.30;4.82;;;27.10;70.20;;;;;;5092433;28;20197;-63
2022/06/25 08:31:06;;;;;;;10.45;3.92;;;27.10;69.80;;;;;;5091575;28;20295;-62
2022/06/25 08:33:32;;;;;;;9.50;4.03;;;26.80;69.70;;;;;;5072528;28;20762;-66
2022/06/25 08:35:57;;;;;;;10.73;3.80;;;26.30;69.60;;;;;;5091770;28;20267;-65
2022/06/25 08:38:23;;;;;;;11.30;4.18;;;26.60;70.20;;;;;;5092641;28;20275;-69
2022/06/25 08:40:55;;;;;;;14.48;4.97;;;26.60;69.80;;;;;;5091875;28;20189;-67
2022/06/25 08:43:20;;;;;;;15.38;6.45;;;26.70;71.10;;;;;;5092362;28;20189;-63
2022/06/25 08:45:46;;;;;;;10.82;4.95;;;26.60;70.70;;;;;;5090525;28;20189;-72
2022/06/25 08:48:19;;;;;;;9.38;4.40;;;26.70;70.80;;;;;;5082835;28;20390;-65
2022/06/25 08:50:48;;;;;;;12.85;4.60;;;26.40;70.20;;;;;;5092184;28;20204;-61
2022/06/25 08:53:14;;;;;;;9.43;4.50;;;26.20;70.50;;;;;;5086820;28;20189;-66
2022/06/25 08:55:41;;;;;;;9.75;4.40;;;26.10;70.90;;;;;;5083043;28;20229;-65
2022/06/25 08:58:09;;;;;;;9.07;4.05;;;26.10;68.60;;;;;;5082948;28;20612;-63
2022/06/25 09:00:37;;;;;;;8.75;4.50;;;26.10;67.50;;;;;;5078106;28;20204;-60
2022/06/25 09:03:04;;;;;;;13.80;4.68;;;26.30;68.70;;;;;;5091186;28;20262;-60
2022/06/25 09:05:35;;;;;;;18.63;4.78;;;26.50;65.60;;;;;;5091507;28;20185;-61
2022/06/25 09:08:05;;;;;;;15.80;4.20;;;26.80;65.70;;;;;;5090785;28;20272;-64
2022/06/25 09:10:31;;;;;;;9.95;3.35;;;26.90;63.20;;;;;;5091089;28;20343;-66
2022/06/25 09:12:59;;;;;;;3.17;1.83;;;27.00;62.20;;;;;;5082544;28;20223;-67
2022/06/25 09:15:40;;;;;;;5.18;3.15;;;26.80;61.90;;;;;;5081280;28;20548;-66
2022/06/25 09:18:09;;;;;;;5.97;3.00;;;26.30;62.90;;;;;;5079277;28;20189;-63
2022/06/25 09:20:36;;;;;;;10.77;4.10;;;26.30;64.20;;;;;;5091372;28;20192;-63
2022/06/25 09:23:06;;;;;;;11.88;3.97;;;26.00;64.80;;;;;;5090788;28;20193;-63
2022/06/25 09:25:34;;;;;;;9.35;3.50;;;25.90;65.20;;;;;;5089335;28;20184;-63
2022/06/25 09:28:01;;;;;;;9.35;3.35;;;25.90;64.10;;;;;;5088233;28;20183;-62
2022/06/25 09:30:29;;;;;;;14.75;4.38;;;26.20;64.90;;;;;;5087907;28;20299;-63
2022/06/25 09:33:02;;;;;;;7.25;2.97;;;26.30;64.90;;;;;;5071222;28;20249;-62
2022/06/25 09:35:42;;;;;;;11.25;3.92;;;26.30;63.80;;;;;;5088100;28;20677;-62
2022/06/25 09:38:11;;;;;;;6.80;3.40;;;26.60;63.40;;;;;;5089544;28;20906;-63
2022/06/25 09:40:38;;;;;;;12.70;3.92;;;26.80;63.90;;;;;;5091138;28;20237;-63
2022/06/25 09:43:18;;;;;;;5.30;3.25;;;27.00;63.00;;;;;;5090908;28;20191;-63
2022/06/25 09:45:47;;;;;;;8.52;3.78;;;27.20;62.00;;;;;;5091133;28;20181;-62
2022/06/25 09:48:24;;;;;;;9.60;3.90;;;27.20;62.40;;;;;;5088435;28;20191;-62
2022/06/25 09:51:08;;;;;;;6.22;3.92;;;27.10;60.80;;;;;;5090325;28;20235;-63
2022/06/25 09:53:35;;;;;;;12.60;3.45;;;27.10;61.30;;;;;;5079082;28;20200;-62
2022/06/25 09:56:04;;;;;;;11.10;3.70;;;27.10;60.20;;;;;;5080540;28;20399;-63
2022/06/25 09:58:34;;;;;;;8.60;3.30;;;27.00;60.60;;;;;;5090338;28;20222;-62
2022/06/25 10:01:02;;;;;;;7.45;3.83;;;27.00;61.10;;;;;;5090363;28;20224;-61
2022/06/25 10:03:31;;;;;;;6.80;3.65;;;27.20;60.90;;;;;;5089930;28;20501;-60
2022/06/25 10:05:59;;;;;;;1.08;0.90;;;27.40;60.30;;;;;;5071764;28;20185;-63
2022/06/25 10:08:27;;;;;;;8.30;3.47;;;27.40;59.90;;;;;;5072962;28;20189;-61
2022/06/25 10:10:54;;;;;;;1.00;0.40;;;27.50;58.60;;;;;;5090601;28;20208;-62
2022/06/25 10:13:22;;;;;;;1.45;0.85;;;27.30;58.80;;;;;;5084447;28;20374;-60
2022/06/25 10:15:48;;;;;;;6.25;2.92;;;27.30;59.00;;;;;;5088931;28;20191;-62
2022/06/25 10:18:15;;;;;;;2.72;1.38;;;27.40;58.80;;;;;;5076399;28;20197;-61
2022/06/25 10:20:43;;;;;;;0.98;0.73;;;27.60;59.20;;;;;;5089428;28;20188;-62
2022/06/25 10:23:11;;;;;;;4.35;1.30;;;27.80;58.30;;;;;;5090172;28;20180;-62
2022/06/25 10:25:38;;;;;;;4.20;1.30;;;27.60;57.90;;;;;;5064387;28;20272;-61
2022/06/25 10:28:07;;;;;;;3.15;0.95;;;27.80;56.60;;;;;;5071973;28;20197;-62
2022/06/25 10:30:53;;;;;;;0.20;0.03;;;27.80;57.50;;;;;;5072722;28;20213;-62
2022/06/25 10:33:25;;;;;;;1.52;1.02;;;28.20;58.30;;;;;;5090237;28;20219;-63
2022/06/25 10:35:54;;;;;;;0.47;0.43;;;28.00;56.70;;;;;;5071232;28;20192;-64
2022/06/25 10:38:22;;;;;;;13.13;3.20;;;28.10;56.50;;;;;;5090663;28;20273;-63
2022/06/25 10:42:58;;;;;;;4.03;3.13;;;28.30;54.60;;;;;;5089405;28;20185;-63
2022/06/25 10:43:50;;;;;;;5.35;2.95;;;28.20;56.90;;;;;;5094281;28;20219;-61
2022/06/25 10:46:30;;;;;;;6.15;2.38;;;28.00;55.10;;;;;;5093930;28;20246;-59
2022/06/25 10:49:17;;;;;;;7.07;3.08;;;27.80;54.50;;;;;;5092961;28;20188;-61
2022/06/25 10:51:49;;;;;;;6.55;2.60;;;27.70;55.20;;;;;;5094184;28;20201;-61
2022/06/25 10:54:27;;;;;;;3.55;0.80;;;27.80;52.70;;;;;;5092741;28;20200;-61
2022/06/25 10:56:54;;;;;;;0.00;0.00;;;27.90;53.20;;;;;;5093164;28;20271;-61
2022/06/25 10:59:46;;;;;;;1.15;1.05;;;27.90;54.30;;;;;;5094024;28;20173;-61
2022/06/25 11:02:15;;;;;;;0.50;0.50;;;28.20;55.30;;;;;;5073603;28;20500;-62
2022/06/25 11:04:53;;;;;;;0.20;0.20;;;28.30;54.40;;;;;;5074785;28;20229;-61
2022/06/25 11:07:22;;;;;;;0.25;0.25;;;28.40;54.20;;;;;;5075922;28;20177;-63
2022/06/25 11:09:56;;;;;;;4.55;2.10;;;28.80;54.90;;;;;;5086959;28;20212;-63
2022/06/25 11:12:23;;;;;;;0.32;0.25;;;29.20;53.80;;;;;;5075587;28;20539;-61
2022/06/25 11:14:57;;;;;;;8.55;3.53;;;29.40;52.40;;;;;;5093707;28;20177;-65
2022/06/25 11:17:23;;;;;;;7.13;2.00;;;29.90;53.50;;;;;;5083316;28;20268;-64
2022/06/25 11:19:49;;;;;;;8.20;3.13;;;30.40;51.10;;;;;;5094071;28;20335;-64
2022/06/25 11:22:15;;;;;;;5.50;2.70;;;30.40;50.30;;;;;;5093795;28;20173;-62
2022/06/25 11:28:47;;;;;;;9.05;3.85;;;31.30;49.50;;;;;;5094353;28;20258;-63
2022/06/25 11:30:14;;;;;;;4.35;2.45;;;33.10;46.80;;;;;;5094313;28;20288;-62
2022/06/25 11:32:45;;;;;;;6.65;2.30;;;34.40;43.60;;;;;;5094142;28;20204;-62
2022/06/25 11:35:12;;;;;;;7.90;3.15;;;35.50;41.30;;;;;;5094206;28;20181;-65
2022/06/25 11:37:38;;;;;;;7.45;2.40;;;36.20;38.80;;;;;;5094693;28;20173;-68
2022/06/25 11:40:15;;;;;;;5.82;2.67;;;36.50;36.80;;;;;;5094601;28;20183;-69
2022/06/25 11:42:41;;;;;;;8.20;2.10;;;37.50;36.70;;;;;;5094500;28;20171;-68
2022/06/25 11:45:10;;;;;;;1.77;0.85;;;38.40;35.50;;;;;;5093967;28;20192;-68
2022/06/25 11:47:37;;;;;;;3.60;0.73;;;39.20;35.20;;;;;;5094479;28;20176;-68
2022/06/25 11:50:11;;;;;;;7.75;2.00;;;39.30;34.00;;;;;;5094087;28;20261;-69
2022/06/25 11:52:43;;;;;;;1.55;1.20;;;39.60;33.90;;;;;;5094060;28;20230;-63
2022/06/25 11:55:10;;;;;;;2.75;1.60;;;40.50;32.00;;;;;;5075330;28;20207;-64
2022/06/25 11:57:44;;;;;;;7.88;3.42;;;40.40;31.30;;;;;;5093792;28;20179;-63
2022/06/25 12:00:13;;;;;;;4.80;2.15;;;40.00;31.60;;;;;;5093626;28;20241;-63
2022/06/25 12:02:40;;;;;;;4.28;2.60;;;40.30;30.50;;;;;;5093392;28;20188;-63
2022/06/25 12:05:07;;;;;;;4.45;2.35;;;40.60;30.80;;;;;;5085388;28;20219;-62
2022/06/25 12:07:34;;;;;;;3.95;2.90;;;41.50;30.10;;;;;;5073458;28;20264;-63
2022/06/25 12:10:03;;;;;;;6.32;3.03;;;42.10;29.60;;;;;;5073228;28;20223;-63
2022/06/25 12:12:29;;;;;;;4.00;2.75;;;41.80;29.50;;;;;;5073079;28;20212;-63
2022/06/25 12:15:01;;;;;;;5.00;3.17;;;41.70;28.70;;;;;;5072996;28;20213;-62
2022/06/25 12:17:38;;;;;;;5.85;2.65;;;42.00;28.80;;;;;;5082520;28;20207;-64
2022/06/25 12:20:09;;;;;;;8.27;3.05;;;42.50;28.30;;;;;;5093335;28;20648;-63
2022/06/25 12:22:46;;;;;;;4.63;2.75;;;42.60;28.40;;;;;;5093631;28;20198;-63
2022/06/25 12:25:21;;;;;;;5.38;2.65;;;43.10;28.20;;;;;;5093325;28;20323;-63
2022/06/25 12:27:50;;;;;;;5.45;3.20;;;42.60;28.00;;;;;;5093547;28;20309;-63
2022/06/25 12:30:23;;;;;;;0.38;0.38;;;43.10;27.50;;;;;;5093166;28;20614;-63
2022/06/25 12:32:50;;;;;;;2.95;2.50;;;43.60;26.40;;;;;;5093686;28;20192;-62
2022/06/25 12:35:23;;;;;;;7.07;3.20;;;43.40;26.20;;;;;;5092772;28;20607;-63
2022/06/25 12:38:07;;;;;;;7.15;3.17;;;43.70;27.80;;;;;;5092976;28;20179;-63
2022/06/25 12:40:45;;;;;;;6.30;2.42;;;44.20;26.40;;;;;;5093148;28;20187;-63
2022/06/25 12:43:13;;;;;;;6.18;2.90;;;43.70;26.30;;;;;;5091990;28;20171;-64
2022/06/25 12:45:41;;;;;;;5.65;2.90;;;43.50;26.20;;;;;;5092782;28;20172;-64
2022/06/25 12:48:11;;;;;;;6.50;2.53;;;44.00;25.70;;;;;;5092816;28;20181;-63
2022/06/25 12:50:38;;;;;;;13.02;3.67;;;43.90;26.30;;;;;;5092979;28;20218;-64
2022/06/25 12:53:10;;;;;;;5.07;2.47;;;44.40;26.10;;;;;;5092224;28;20268;-63
2022/06/25 12:55:37;;;;;;;5.38;2.35;;;44.30;26.50;;;;;;5092691;28;20184;-63